Terminal Aerodrome Forecast
Issued by NWS

Home | Current Version | Previous Version | Text Only | Print | Product List | Glossary Off
Versions: 1 2 3 4 5 6 7 8 9 10 11 12 13 14 15 16

892
FTUS43 KIWX 190529
TAFSBN
TAF
KSBN 190529Z 1906/2006 23012G17KT P6SM SKC
     FM192100 20013G21KT P6SM FEW250=

USA.gov is the U.S. government's official web portal to all federal, state and local government web resources and services.